sensor_id;sensor_type;location;lat;lon;timestamp;P1;durP1;ratioP1;P2;durP2;ratioP2
29916;SDS011;16786;49.466;11.068;2023-01-08T00:01:10;29.05;;;16.52;;
29916;SDS011;16786;49.466;11.068;2023-01-08T00:03:38;17.55;;;12.27;;
29916;SDS011;16786;49.466;11.068;2023-01-08T00:06:08;18.95;;;12.20;;
29916;SDS011;16786;49.466;11.068;2023-01-08T00:08:38;20.13;;;13.00;;
29916;SDS011;16786;49.466;11.068;2023-01-08T00:11:05;22.90;;;13.90;;
29916;SDS011;16786;49.466;11.068;2023-01-08T00:13:33;20.67;;;12.43;;
29916;SDS011;16786;49.466;11.068;2023-01-08T00:16:11;19.80;;;12.30;;
29916;SDS011;16786;49.466;11.068;2023-01-08T00:18:41;21.52;;;13.20;;
29916;SDS011;16786;49.466;11.068;2023-01-08T00:21:09;17.83;;;12.25;;
29916;SDS011;16786;49.466;11.068;2023-01-08T00:23:37;20.50;;;13.05;;
29916;SDS011;16786;49.466;11.068;2023-01-08T00:26:06;20.75;;;12.63;;
29916;SDS011;16786;49.466;11.068;2023-01-08T00:28:35;20.83;;;12.80;;
29916;SDS011;16786;49.466;11.068;2023-01-08T00:31:03;19.13;;;12.95;;
29916;SDS011;16786;49.466;11.068;2023-01-08T00:33:33;20.70;;;13.52;;
29916;SDS011;16786;49.466;11.068;2023-01-08T00:36:05;20.80;;;13.38;;
29916;SDS011;16786;49.466;11.068;2023-01-08T00:38:37;21.83;;;13.43;;
29916;SDS011;16786;49.466;11.068;2023-01-08T00:41:04;21.48;;;12.88;;
29916;SDS011;16786;49.466;11.068;2023-01-08T00:43:31;22.05;;;14.30;;
29916;SDS011;16786;49.466;11.068;2023-01-08T00:45:59;22.42;;;13.88;;
29916;SDS011;16786;49.466;11.068;2023-01-08T00:48:26;20.73;;;13.50;;
29916;SDS011;16786;49.466;11.068;2023-01-08T00:50:53;22.25;;;12.95;;
29916;SDS011;16786;49.466;11.068;2023-01-08T00:53:21;19.33;;;12.38;;
29916;SDS011;16786;49.466;11.068;2023-01-08T00:55:49;20.73;;;13.10;;
29916;SDS011;16786;49.466;11.068;2023-01-08T00:58:16;18.35;;;11.98;;
29916;SDS011;16786;49.466;11.068;2023-01-08T01:00:43;20.33;;;12.68;;
29916;SDS011;16786;49.466;11.068;2023-01-08T01:03:11;18.10;;;11.30;;
29916;SDS011;16786;49.466;11.068;2023-01-08T01:05:38;20.42;;;12.52;;
29916;SDS011;16786;49.466;11.068;2023-01-08T01:08:05;21.75;;;13.10;;
29916;SDS011;16786;49.466;11.068;2023-01-08T01:10:33;20.02;;;12.23;;
29916;SDS011;16786;49.466;11.068;2023-01-08T01:13:00;19.85;;;13.25;;
29916;SDS011;16786;49.466;11.068;2023-01-08T01:15:27;21.17;;;13.60;;
29916;SDS011;16786;49.466;11.068;2023-01-08T01:17:54;18.83;;;12.48;;
29916;SDS011;16786;49.466;11.068;2023-01-08T01:20:22;20.33;;;12.90;;
29916;SDS011;16786;49.466;11.068;2023-01-08T01:22:49;21.30;;;13.18;;
29916;SDS011;16786;49.466;11.068;2023-01-08T01:25:16;20.55;;;12.57;;
29916;SDS011;16786;49.466;11.068;2023-01-08T01:27:44;17.95;;;12.68;;
29916;SDS011;16786;49.466;11.068;2023-01-08T01:30:11;20.27;;;12.35;;
29916;SDS011;16786;49.466;11.068;2023-01-08T01:32:38;19.63;;;12.85;;
29916;SDS011;16786;49.466;11.068;2023-01-08T01:35:06;24.60;;;14.63;;
29916;SDS011;16786;49.466;11.068;2023-01-08T01:37:33;32.42;;;18.23;;
29916;SDS011;16786;49.466;11.068;2023-01-08T01:40:01;19.17;;;12.48;;
29916;SDS011;16786;49.466;11.068;2023-01-08T01:42:28;19.95;;;12.90;;
29916;SDS011;16786;49.466;11.068;2023-01-08T01:45:19;20.02;;;12.32;;
29916;SDS011;16786;49.466;11.068;2023-01-08T01:48:00;18.15;;;12.02;;
29916;SDS011;16786;49.466;11.068;2023-01-08T01:50:32;22.42;;;12.32;;
29916;SDS011;16786;49.466;11.068;2023-01-08T01:55:32;20.20;;;12.68;;
29916;SDS011;16786;49.466;11.068;2023-01-08T01:58:04;22.30;;;12.90;;
29916;SDS011;16786;49.466;11.068;2023-01-08T02:00:40;20.17;;;12.68;;
29916;SDS011;16786;49.466;11.068;2023-01-08T02:03:12;19.60;;;12.43;;
29916;SDS011;16786;49.466;11.068;2023-01-08T02:11:48;17.38;;;11.13;;
29916;SDS011;16786;49.466;11.068;2023-01-08T02:17:20;18.35;;;11.68;;
29916;SDS011;16786;49.466;11.068;2023-01-08T02:19:56;21.35;;;13.25;;
29916;SDS011;16786;49.466;11.068;2023-01-08T02:27:56;18.65;;;11.45;;
29916;SDS011;16786;49.466;11.068;2023-01-08T02:30:27;18.98;;;12.15;;
29916;SDS011;16786;49.466;11.068;2023-01-08T02:32:55;19.58;;;12.30;;
29916;SDS011;16786;49.466;11.068;2023-01-08T02:35:23;20.67;;;12.13;;
29916;SDS011;16786;49.466;11.068;2023-01-08T02:37:58;18.33;;;12.40;;
29916;SDS011;16786;49.466;11.068;2023-01-08T02:40:28;21.13;;;12.60;;
29916;SDS011;16786;49.466;11.068;2023-01-08T02:43:13;17.70;;;11.52;;
29916;SDS011;16786;49.466;11.068;2023-01-08T02:45:55;19.75;;;12.43;;
29916;SDS011;16786;49.466;11.068;2023-01-08T02:48:37;21.10;;;12.50;;
29916;SDS011;16786;49.466;11.068;2023-01-08T02:53:44;18.70;;;12.00;;
29916;SDS011;16786;49.466;11.068;2023-01-08T02:56:15;23.73;;;12.82;;
29916;SDS011;16786;49.466;11.068;2023-01-08T02:58:46;19.67;;;12.50;;
29916;SDS011;16786;49.466;11.068;2023-01-08T03:01:16;19.80;;;12.02;;
29916;SDS011;16786;49.466;11.068;2023-01-08T03:03:48;19.88;;;12.00;;
29916;SDS011;16786;49.466;11.068;2023-01-08T03:06:19;18.52;;;11.93;;
29916;SDS011;16786;49.466;11.068;2023-01-08T03:08:49;19.65;;;11.82;;
29916;SDS011;16786;49.466;11.068;2023-01-08T03:11:19;18.30;;;12.18;;
29916;SDS011;16786;49.466;11.068;2023-01-08T03:14:08;18.90;;;12.48;;
29916;SDS011;16786;49.466;11.068;2023-01-08T03:16:46;16.65;;;10.85;;
29916;SDS011;16786;49.466;11.068;2023-01-08T03:19:19;19.52;;;12.18;;
29916;SDS011;16786;49.466;11.068;2023-01-08T03:21:49;19.05;;;11.43;;
29916;SDS011;16786;49.466;11.068;2023-01-08T03:24:19;19.33;;;12.38;;
29916;SDS011;16786;49.466;11.068;2023-01-08T03:26:49;18.20;;;12.07;;
29916;SDS011;16786;49.466;11.068;2023-01-08T03:29:19;18.42;;;11.75;;
29916;SDS011;16786;49.466;11.068;2023-01-08T03:31:50;17.13;;;11.32;;
29916;SDS011;16786;49.466;11.068;2023-01-08T03:34:22;18.42;;;11.93;;
29916;SDS011;16786;49.466;11.068;2023-01-08T03:36:52;19.95;;;12.35;;
29916;SDS011;16786;49.466;11.068;2023-01-08T03:39:24;18.05;;;11.13;;
29916;SDS011;16786;49.466;11.068;2023-01-08T03:41:56;17.75;;;11.20;;
29916;SDS011;16786;49.466;11.068;2023-01-08T03:44:28;20.58;;;11.90;;
29916;SDS011;16786;49.466;11.068;2023-01-08T03:46:55;18.83;;;11.40;;
29916;SDS011;16786;49.466;11.068;2023-01-08T03:49:24;18.90;;;11.95;;
29916;SDS011;16786;49.466;11.068;2023-01-08T03:51:54;16.98;;;11.85;;
29916;SDS011;16786;49.466;11.068;2023-01-08T03:54:23;17.50;;;11.35;;
29916;SDS011;16786;49.466;11.068;2023-01-08T03:56:54;19.20;;;11.95;;
29916;SDS011;16786;49.466;11.068;2023-01-08T03:59:22;19.48;;;11.25;;
29916;SDS011;16786;49.466;11.068;2023-01-08T04:01:49;19.52;;;12.15;;
29916;SDS011;16786;49.466;11.068;2023-01-08T04:04:16;17.65;;;11.73;;
29916;SDS011;16786;49.466;11.068;2023-01-08T04:06:44;19.23;;;11.15;;
29916;SDS011;16786;49.466;11.068;2023-01-08T04:09:11;18.13;;;12.07;;
29916;SDS011;16786;49.466;11.068;2023-01-08T04:11:38;17.70;;;11.68;;
29916;SDS011;16786;49.466;11.068;2023-01-08T04:14:06;15.82;;;10.25;;
29916;SDS011;16786;49.466;11.068;2023-01-08T04:16:33;17.80;;;10.73;;
29916;SDS011;16786;49.466;11.068;2023-01-08T04:19:00;17.83;;;11.02;;
29916;SDS011;16786;49.466;11.068;2023-01-08T04:21:28;19.17;;;10.82;;
29916;SDS011;16786;49.466;11.068;2023-01-08T04:23:55;15.85;;;10.50;;
29916;SDS011;16786;49.466;11.068;2023-01-08T04:26:23;17.23;;;11.38;;
29916;SDS011;16786;49.466;11.068;2023-01-08T04:28:50;16.58;;;11.45;;
29916;SDS011;16786;49.466;11.068;2023-01-08T04:31:17;15.45;;;10.23;;
29916;SDS011;16786;49.466;11.068;2023-01-08T04:33:45;15.88;;;10.25;;
29916;SDS011;16786;49.466;11.068;2023-01-08T04:36:12;16.60;;;10.45;;
29916;SDS011;16786;49.466;11.068;2023-01-08T04:38:39;15.52;;;10.50;;
29916;SDS011;16786;49.466;11.068;2023-01-08T04:41:07;18.48;;;11.05;;
29916;SDS011;16786;49.466;11.068;2023-01-08T04:43:34;16.20;;;10.30;;
29916;SDS011;16786;49.466;11.068;2023-01-08T04:46:02;18.50;;;10.95;;
29916;SDS011;16786;49.466;11.068;2023-01-08T04:48:33;16.27;;;10.25;;
29916;SDS011;16786;49.466;11.068;2023-01-08T04:51:01;17.67;;;11.23;;
29916;SDS011;16786;49.466;11.068;2023-01-08T04:53:31;16.70;;;10.68;;
29916;SDS011;16786;49.466;11.068;2023-01-08T04:56:07;18.17;;;11.13;;
29916;SDS011;16786;49.466;11.068;2023-01-08T04:58:35;16.90;;;11.23;;
29916;SDS011;16786;49.466;11.068;2023-01-08T05:01:10;18.13;;;10.98;;
29916;SDS011;16786;49.466;11.068;2023-01-08T05:03:45;17.92;;;10.90;;
29916;SDS011;16786;49.466;11.068;2023-01-08T05:06:13;16.27;;;10.98;;
29916;SDS011;16786;49.466;11.068;2023-01-08T05:08:40;15.90;;;10.27;;
29916;SDS011;16786;49.466;11.068;2023-01-08T05:11:07;16.77;;;11.07;;
29916;SDS011;16786;49.466;11.068;2023-01-08T05:13:35;15.77;;;10.05;;
29916;SDS011;16786;49.466;11.068;2023-01-08T05:16:02;16.67;;;11.05;;
29916;SDS011;16786;49.466;11.068;2023-01-08T05:18:30;16.58;;;11.27;;
29916;SDS011;16786;49.466;11.068;2023-01-08T05:21:01;17.88;;;10.80;;
29916;SDS011;16786;49.466;11.068;2023-01-08T05:23:31;15.05;;;10.95;;
29916;SDS011;16786;49.466;11.068;2023-01-08T05:25:59;15.85;;;11.35;;
29916;SDS011;16786;49.466;11.068;2023-01-08T05:28:28;18.00;;;11.85;;
29916;SDS011;16786;49.466;11.068;2023-01-08T05:30:56;16.77;;;11.48;;
29916;SDS011;16786;49.466;11.068;2023-01-08T05:33:23;17.83;;;11.80;;
29916;SDS011;16786;49.466;11.068;2023-01-08T05:35:51;17.38;;;11.98;;
29916;SDS011;16786;49.466;11.068;2023-01-08T05:38:18;17.73;;;11.48;;
29916;SDS011;16786;49.466;11.068;2023-01-08T05:40:46;18.48;;;11.25;;
29916;SDS011;16786;49.466;11.068;2023-01-08T05:43:13;18.83;;;11.93;;
29916;SDS011;16786;49.466;11.068;2023-01-08T05:45:40;16.30;;;11.30;;
29916;SDS011;16786;49.466;11.068;2023-01-08T05:48:07;17.80;;;12.02;;
29916;SDS011;16786;49.466;11.068;2023-01-08T05:50:35;18.85;;;11.30;;
29916;SDS011;16786;49.466;11.068;2023-01-08T05:53:05;16.25;;;11.30;;
29916;SDS011;16786;49.466;11.068;2023-01-08T05:55:33;19.15;;;12.25;;
29916;SDS011;16786;49.466;11.068;2023-01-08T05:58:01;17.23;;;12.07;;
29916;SDS011;16786;49.466;11.068;2023-01-08T06:00:32;17.25;;;11.68;;
29916;SDS011;16786;49.466;11.068;2023-01-08T06:03:00;17.00;;;12.40;;
29916;SDS011;16786;49.466;11.068;2023-01-08T06:05:28;16.27;;;11.63;;
29916;SDS011;16786;49.466;11.068;2023-01-08T06:07:57;15.80;;;11.65;;
29916;SDS011;16786;49.466;11.068;2023-01-08T06:10:24;15.38;;;11.15;;
29916;SDS011;16786;49.466;11.068;2023-01-08T06:12:52;15.52;;;11.40;;
29916;SDS011;16786;49.466;11.068;2023-01-08T06:15:19;16.65;;;11.50;;
29916;SDS011;16786;49.466;11.068;2023-01-08T06:17:47;17.95;;;11.90;;
29916;SDS011;16786;49.466;11.068;2023-01-08T06:20:14;16.88;;;11.65;;
29916;SDS011;16786;49.466;11.068;2023-01-08T06:22:41;17.73;;;11.52;;
29916;SDS011;16786;49.466;11.068;2023-01-08T06:25:08;16.13;;;11.40;;
29916;SDS011;16786;49.466;11.068;2023-01-08T06:27:36;17.58;;;11.73;;
29916;SDS011;16786;49.466;11.068;2023-01-08T06:30:06;17.67;;;11.73;;
29916;SDS011;16786;49.466;11.068;2023-01-08T06:32:35;17.13;;;11.63;;
29916;SDS011;16786;49.466;11.068;2023-01-08T06:35:02;16.90;;;11.43;;
29916;SDS011;16786;49.466;11.068;2023-01-08T06:37:29;16.17;;;10.95;;
29916;SDS011;16786;49.466;11.068;2023-01-08T06:39:56;16.63;;;10.60;;
29916;SDS011;16786;49.466;11.068;2023-01-08T06:42:24;16.27;;;11.02;;
29916;SDS011;16786;49.466;11.068;2023-01-08T06:44:51;16.50;;;10.52;;
29916;SDS011;16786;49.466;11.068;2023-01-08T06:47:18;16.13;;;10.75;;
29916;SDS011;16786;49.466;11.068;2023-01-08T06:49:45;18.15;;;11.65;;
29916;SDS011;16786;49.466;11.068;2023-01-08T06:52:13;18.60;;;11.93;;
29916;SDS011;16786;49.466;11.068;2023-01-08T06:54:40;16.00;;;11.02;;
29916;SDS011;16786;49.466;11.068;2023-01-08T06:57:07;16.45;;;10.98;;
29916;SDS011;16786;49.466;11.068;2023-01-08T06:59:34;16.52;;;11.10;;
29916;SDS011;16786;49.466;11.068;2023-01-08T07:02:02;14.88;;;11.07;;
29916;SDS011;16786;49.466;11.068;2023-01-08T07:04:29;17.60;;;11.52;;
29916;SDS011;16786;49.466;11.068;2023-01-08T07:06:56;14.95;;;11.10;;
29916;SDS011;16786;49.466;11.068;2023-01-08T07:09:23;15.85;;;10.57;;
29916;SDS011;16786;49.466;11.068;2023-01-08T07:11:51;15.85;;;10.90;;
29916;SDS011;16786;49.466;11.068;2023-01-08T07:14:18;18.00;;;11.02;;
29916;SDS011;16786;49.466;11.068;2023-01-08T07:16:45;19.13;;;11.55;;
29916;SDS011;16786;49.466;11.068;2023-01-08T07:19:12;17.63;;;12.10;;
29916;SDS011;16786;49.466;11.068;2023-01-08T07:21:40;16.77;;;11.13;;
29916;SDS011;16786;49.466;11.068;2023-01-08T07:24:07;15.75;;;10.90;;
29916;SDS011;16786;49.466;11.068;2023-01-08T07:26:35;15.90;;;10.27;;
29916;SDS011;16786;49.466;11.068;2023-01-08T07:29:02;16.25;;;10.88;;
29916;SDS011;16786;49.466;11.068;2023-01-08T07:31:29;27.05;;;12.60;;
29916;SDS011;16786;49.466;11.068;2023-01-08T07:33:57;17.45;;;12.18;;
29916;SDS011;16786;49.466;11.068;2023-01-08T07:36:25;15.32;;;9.93;;
29916;SDS011;16786;49.466;11.068;2023-01-08T07:38:52;15.63;;;10.18;;
29916;SDS011;16786;49.466;11.068;2023-01-08T07:41:19;16.55;;;10.13;;
29916;SDS011;16786;49.466;11.068;2023-01-08T07:43:47;16.63;;;10.38;;
29916;SDS011;16786;49.466;11.068;2023-01-08T07:46:14;14.65;;;9.88;;
29916;SDS011;16786;49.466;11.068;2023-01-08T07:48:42;14.98;;;10.23;;
29916;SDS011;16786;49.466;11.068;2023-01-08T07:51:09;15.35;;;9.85;;
29916;SDS011;16786;49.466;11.068;2023-01-08T07:53:37;16.35;;;10.45;;
29916;SDS011;16786;49.466;11.068;2023-01-08T07:56:05;17.20;;;10.88;;
29916;SDS011;16786;49.466;11.068;2023-01-08T07:58:37;16.75;;;10.18;;
29916;SDS011;16786;49.466;11.068;2023-01-08T08:01:06;14.98;;;9.60;;
29916;SDS011;16786;49.466;11.068;2023-01-08T08:03:37;15.30;;;10.07;;
29916;SDS011;16786;49.466;11.068;2023-01-08T08:06:05;15.32;;;10.23;;
29916;SDS011;16786;49.466;11.068;2023-01-08T08:08:32;15.40;;;10.30;;
29916;SDS011;16786;49.466;11.068;2023-01-08T08:11:00;14.93;;;10.20;;
29916;SDS011;16786;49.466;11.068;2023-01-08T08:13:28;15.25;;;10.32;;
29916;SDS011;16786;49.466;11.068;2023-01-08T08:15:59;16.20;;;10.25;;
29916;SDS011;16786;49.466;11.068;2023-01-08T08:18:27;15.73;;;10.27;;
29916;SDS011;16786;49.466;11.068;2023-01-08T08:20:54;14.88;;;9.80;;
29916;SDS011;16786;49.466;11.068;2023-01-08T08:23:22;13.98;;;10.05;;
29916;SDS011;16786;49.466;11.068;2023-01-08T08:25:49;14.45;;;9.77;;
29916;SDS011;16786;49.466;11.068;2023-01-08T08:28:17;16.75;;;10.43;;
29916;SDS011;16786;49.466;11.068;2023-01-08T08:30:45;14.85;;;9.73;;
29916;SDS011;16786;49.466;11.068;2023-01-08T08:33:12;16.60;;;10.27;;
29916;SDS011;16786;49.466;11.068;2023-01-08T08:35:40;15.25;;;10.02;;
29916;SDS011;16786;49.466;11.068;2023-01-08T08:38:13;14.13;;;9.50;;
29916;SDS011;16786;49.466;11.068;2023-01-08T08:40:41;13.63;;;9.23;;
29916;SDS011;16786;49.466;11.068;2023-01-08T08:43:08;15.70;;;10.30;;
29916;SDS011;16786;49.466;11.068;2023-01-08T08:45:35;14.65;;;10.10;;
29916;SDS011;16786;49.466;11.068;2023-01-08T08:48:06;14.82;;;10.45;;
29916;SDS011;16786;49.466;11.068;2023-01-08T08:50:34;15.50;;;10.07;;
29916;SDS011;16786;49.466;11.068;2023-01-08T08:53:02;13.82;;;10.13;;
29916;SDS011;16786;49.466;11.068;2023-01-08T08:55:31;14.77;;;9.48;;
29916;SDS011;16786;49.466;11.068;2023-01-08T08:58:02;14.90;;;10.10;;
29916;SDS011;16786;49.466;11.068;2023-01-08T09:00:31;15.23;;;10.23;;
29916;SDS011;16786;49.466;11.068;2023-01-08T09:02:59;14.93;;;9.88;;
29916;SDS011;16786;49.466;11.068;2023-01-08T09:05:26;15.45;;;9.30;;
29916;SDS011;16786;49.466;11.068;2023-01-08T09:07:54;15.13;;;10.00;;
29916;SDS011;16786;49.466;11.068;2023-01-08T09:10:22;14.95;;;9.65;;
29916;SDS011;16786;49.466;11.068;2023-01-08T09:12:49;13.85;;;9.27;;
29916;SDS011;16786;49.466;11.068;2023-01-08T09:15:19;13.23;;;8.75;;
29916;SDS011;16786;49.466;11.068;2023-01-08T09:17:54;13.07;;;8.48;;
29916;SDS011;16786;49.466;11.068;2023-01-08T09:20:22;15.23;;;9.95;;
29916;SDS011;16786;49.466;11.068;2023-01-08T09:22:51;12.90;;;9.20;;
29916;SDS011;16786;49.466;11.068;2023-01-08T09:25:18;12.68;;;9.07;;
29916;SDS011;16786;49.466;11.068;2023-01-08T09:27:46;11.60;;;8.40;;
29916;SDS011;16786;49.466;11.068;2023-01-08T09:30:13;13.68;;;8.73;;
29916;SDS011;16786;49.466;11.068;2023-01-08T09:32:40;13.07;;;9.10;;
29916;SDS011;16786;49.466;11.068;2023-01-08T09:35:07;13.68;;;8.55;;
29916;SDS011;16786;49.466;11.068;2023-01-08T09:37:35;13.68;;;8.98;;
29916;SDS011;16786;49.466;11.068;2023-01-08T09:40:02;14.93;;;10.50;;
29916;SDS011;16786;49.466;11.068;2023-01-08T09:42:30;13.57;;;9.02;;
29916;SDS011;16786;49.466;11.068;2023-01-08T09:44:58;11.40;;;8.10;;
29916;SDS011;16786;49.466;11.068;2023-01-08T09:47:35;13.02;;;8.90;;
29916;SDS011;16786;49.466;11.068;2023-01-08T09:50:08;12.60;;;8.23;;
29916;SDS011;16786;49.466;11.068;2023-01-08T09:52:38;12.68;;;8.20;;
29916;SDS011;16786;49.466;11.068;2023-01-08T09:55:12;10.63;;;7.43;;
29916;SDS011;16786;49.466;11.068;2023-01-08T10:00:12;12.43;;;7.70;;
29916;SDS011;16786;49.466;11.068;2023-01-08T10:02:41;10.90;;;7.80;;
29916;SDS011;16786;49.466;11.068;2023-01-08T10:05:12;10.15;;;7.50;;
29916;SDS011;16786;49.466;11.068;2023-01-08T10:07:41;13.70;;;8.65;;
29916;SDS011;16786;49.466;11.068;2023-01-08T10:10:20;12.68;;;8.15;;
29916;SDS011;16786;49.466;11.068;2023-01-08T10:12:52;11.57;;;8.13;;
29916;SDS011;16786;49.466;11.068;2023-01-08T10:15:21;9.32;;;6.57;;
29916;SDS011;16786;49.466;11.068;2023-01-08T10:20:30;10.02;;;7.22;;
29916;SDS011;16786;49.466;11.068;2023-01-08T10:23:12;13.18;;;8.05;;
29916;SDS011;16786;49.466;11.068;2023-01-08T10:25:49;10.07;;;7.72;;
29916;SDS011;16786;49.466;11.068;2023-01-08T10:28:30;13.25;;;7.68;;
29916;SDS011;16786;49.466;11.068;2023-01-08T10:31:04;11.23;;;8.18;;
29916;SDS011;16786;49.466;11.068;2023-01-08T10:33:39;14.88;;;8.18;;
29916;SDS011;16786;49.466;11.068;2023-01-08T10:36:10;11.98;;;7.28;;
29916;SDS011;16786;49.466;11.068;2023-01-08T10:38:41;12.05;;;7.82;;
29916;SDS011;16786;49.466;11.068;2023-01-08T10:41:14;14.80;;;9.48;;
29916;SDS011;16786;49.466;11.068;2023-01-08T10:46:48;12.73;;;8.07;;
29916;SDS011;16786;49.466;11.068;2023-01-08T10:49:31;11.93;;;7.30;;
29916;SDS011;16786;49.466;11.068;2023-01-08T10:52:04;11.00;;;7.80;;
29916;SDS011;16786;49.466;11.068;2023-01-08T10:54:45;11.47;;;7.60;;
29916;SDS011;16786;49.466;11.068;2023-01-08T10:57:19;13.55;;;8.65;;
29916;SDS011;16786;49.466;11.068;2023-01-08T10:59:47;13.98;;;9.05;;
29916;SDS011;16786;49.466;11.068;2023-01-08T11:02:20;10.90;;;7.30;;
29916;SDS011;16786;49.466;11.068;2023-01-08T11:04:56;13.80;;;8.52;;
29916;SDS011;16786;49.466;11.068;2023-01-08T11:07:25;14.45;;;8.43;;
29916;SDS011;16786;49.466;11.068;2023-01-08T11:09:53;13.77;;;8.60;;
29916;SDS011;16786;49.466;11.068;2023-01-08T11:12:29;13.63;;;9.30;;
29916;SDS011;16786;49.466;11.068;2023-01-08T11:14:57;12.30;;;8.43;;
29916;SDS011;16786;49.466;11.068;2023-01-08T11:17:25;13.02;;;8.20;;
29916;SDS011;16786;49.466;11.068;2023-01-08T11:19:53;12.30;;;7.88;;
29916;SDS011;16786;49.466;11.068;2023-01-08T11:22:22;12.05;;;7.75;;
29916;SDS011;16786;49.466;11.068;2023-01-08T11:24:51;12.65;;;7.88;;
29916;SDS011;16786;49.466;11.068;2023-01-08T11:38:15;12.38;;;8.23;;
29916;SDS011;16786;49.466;11.068;2023-01-08T11:40:45;10.88;;;7.72;;
29916;SDS011;16786;49.466;11.068;2023-01-08T11:43:33;13.15;;;8.05;;
29916;SDS011;16786;49.466;11.068;2023-01-08T11:46:12;16.05;;;8.93;;
29916;SDS011;16786;49.466;11.068;2023-01-08T11:49:31;14.63;;;8.60;;
29916;SDS011;16786;49.466;11.068;2023-01-08T12:03:33;13.63;;;9.30;;
29916;SDS011;16786;49.466;11.068;2023-01-08T12:11:55;19.35;;;12.48;;
29916;SDS011;16786;49.466;11.068;2023-01-08T12:14:56;16.63;;;11.35;;
29916;SDS011;16786;49.466;11.068;2023-01-08T12:20:36;15.00;;;9.95;;
29916;SDS011;16786;49.466;11.068;2023-01-08T12:23:14;16.35;;;9.90;;
29916;SDS011;16786;49.466;11.068;2023-01-08T12:33:55;16.65;;;9.15;;
29916;SDS011;16786;49.466;11.068;2023-01-08T12:36:36;17.20;;;9.80;;
29916;SDS011;16786;49.466;11.068;2023-01-08T12:39:10;17.45;;;9.50;;
29916;SDS011;16786;49.466;11.068;2023-01-08T12:41:41;13.50;;;8.77;;
29916;SDS011;16786;49.466;11.068;2023-01-08T12:44:11;13.52;;;9.35;;
29916;SDS011;16786;49.466;11.068;2023-01-08T12:46:42;14.85;;;9.10;;
29916;SDS011;16786;49.466;11.068;2023-01-08T12:49:15;18.88;;;9.80;;
29916;SDS011;16786;49.466;11.068;2023-01-08T12:51:54;13.45;;;8.50;;
29916;SDS011;16786;49.466;11.068;2023-01-08T13:04:49;13.63;;;8.15;;
29916;SDS011;16786;49.466;11.068;2023-01-08T13:07:25;12.25;;;7.90;;
29916;SDS011;16786;49.466;11.068;2023-01-08T13:10:07;17.97;;;9.30;;
29916;SDS011;16786;49.466;11.068;2023-01-08T13:12:48;15.27;;;8.77;;
29916;SDS011;16786;49.466;11.068;2023-01-08T13:15:20;13.20;;;7.93;;
29916;SDS011;16786;49.466;11.068;2023-01-08T13:17:52;11.43;;;6.95;;
29916;SDS011;16786;49.466;11.068;2023-01-08T13:20:26;11.17;;;7.60;;
29916;SDS011;16786;49.466;11.068;2023-01-08T13:22:57;10.52;;;7.25;;
29916;SDS011;16786;49.466;11.068;2023-01-08T13:27:55;12.93;;;7.38;;
29916;SDS011;16786;49.466;11.068;2023-01-08T13:35:52;8.73;;;6.18;;
29916;SDS011;16786;49.466;11.068;2023-01-08T13:38:40;12.15;;;7.97;;
29916;SDS011;16786;49.466;11.068;2023-01-08T13:41:24;13.63;;;8.02;;
29916;SDS011;16786;49.466;11.068;2023-01-08T13:43:59;17.67;;;8.57;;
29916;SDS011;16786;49.466;11.068;2023-01-08T13:46:31;16.13;;;10.10;;
29916;SDS011;16786;49.466;11.068;2023-01-08T13:50:03;13.48;;;8.25;;
29916;SDS011;16786;49.466;11.068;2023-01-08T13:52:25;11.45;;;7.43;;
29916;SDS011;16786;49.466;11.068;2023-01-08T13:54:55;12.95;;;7.78;;
29916;SDS011;16786;49.466;11.068;2023-01-08T13:57:23;10.90;;;6.88;;
29916;SDS011;16786;49.466;11.068;2023-01-08T13:59:53;13.27;;;8.07;;
29916;SDS011;16786;49.466;11.068;2023-01-08T14:02:29;13.40;;;7.82;;
29916;SDS011;16786;49.466;11.068;2023-01-08T14:05:00;10.73;;;7.20;;
29916;SDS011;16786;49.466;11.068;2023-01-08T14:07:37;13.05;;;7.35;;
29916;SDS011;16786;49.466;11.068;2023-01-08T14:10:06;10.88;;;6.38;;
29916;SDS011;16786;49.466;11.068;2023-01-08T14:12:35;10.95;;;6.72;;
29916;SDS011;16786;49.466;11.068;2023-01-08T14:15:02;9.80;;;6.75;;
29916;SDS011;16786;49.466;11.068;2023-01-08T14:17:35;12.80;;;7.88;;
29916;SDS011;16786;49.466;11.068;2023-01-08T14:20:07;14.40;;;8.27;;
29916;SDS011;16786;49.466;11.068;2023-01-08T14:22:37;14.23;;;7.97;;
29916;SDS011;16786;49.466;11.068;2023-01-08T14:25:12;16.27;;;8.20;;
29916;SDS011;16786;49.466;11.068;2023-01-08T14:27:42;13.25;;;8.93;;
29916;SDS011;16786;49.466;11.068;2023-01-08T14:30:24;11.82;;;7.95;;
29916;SDS011;16786;49.466;11.068;2023-01-08T14:32:52;11.52;;;7.50;;
29916;SDS011;16786;49.466;11.068;2023-01-08T14:35:29;14.60;;;8.77;;
29916;SDS011;16786;49.466;11.068;2023-01-08T14:38:00;14.48;;;8.50;;
29916;SDS011;16786;49.466;11.068;2023-01-08T14:40:37;16.05;;;8.98;;
29916;SDS011;16786;49.466;11.068;2023-01-08T14:43:11;11.85;;;7.90;;
29916;SDS011;16786;49.466;11.068;2023-01-08T14:45:48;15.05;;;9.07;;
29916;SDS011;16786;49.466;11.068;2023-01-08T14:48:24;13.25;;;8.52;;
29916;SDS011;16786;49.466;11.068;2023-01-08T14:50:59;12.93;;;8.38;;
29916;SDS011;16786;49.466;11.068;2023-01-08T14:53:32;12.30;;;8.00;;
29916;SDS011;16786;49.466;11.068;2023-01-08T14:56:03;12.38;;;7.82;;
29916;SDS011;16786;49.466;11.068;2023-01-08T14:58:38;18.45;;;8.43;;
29916;SDS011;16786;49.466;11.068;2023-01-08T15:01:13;13.50;;;8.35;;
29916;SDS011;16786;49.466;11.068;2023-01-08T15:03:43;12.15;;;8.10;;
29916;SDS011;16786;49.466;11.068;2023-01-08T15:06:22;17.40;;;9.75;;
29916;SDS011;16786;49.466;11.068;2023-01-08T15:08:53;15.10;;;9.33;;
29916;SDS011;16786;49.466;11.068;2023-01-08T15:11:22;15.02;;;9.85;;
29916;SDS011;16786;49.466;11.068;2023-01-08T15:14:11;15.32;;;8.82;;
29916;SDS011;16786;49.466;11.068;2023-01-08T15:16:39;17.52;;;9.63;;
29916;SDS011;16786;49.466;11.068;2023-01-08T15:19:12;28.17;;;15.15;;
29916;SDS011;16786;49.466;11.068;2023-01-08T15:21:45;23.42;;;13.23;;
29916;SDS011;16786;49.466;11.068;2023-01-08T15:27:00;16.27;;;9.15;;
29916;SDS011;16786;49.466;11.068;2023-01-08T15:29:38;14.27;;;9.05;;
29916;SDS011;16786;49.466;11.068;2023-01-08T15:34:40;10.65;;;7.30;;
29916;SDS011;16786;49.466;11.068;2023-01-08T15:37:08;11.75;;;7.40;;
29916;SDS011;16786;49.466;11.068;2023-01-08T15:39:36;12.55;;;8.00;;
29916;SDS011;16786;49.466;11.068;2023-01-08T15:47:40;17.13;;;9.75;;
29916;SDS011;16786;49.466;11.068;2023-01-08T15:50:08;20.60;;;10.07;;
29916;SDS011;16786;49.466;11.068;2023-01-08T15:52:37;17.88;;;10.68;;
29916;SDS011;16786;49.466;11.068;2023-01-08T15:55:06;26.02;;;14.63;;
29916;SDS011;16786;49.466;11.068;2023-01-08T15:57:40;24.77;;;11.73;;
29916;SDS011;16786;49.466;11.068;2023-01-08T16:00:08;22.88;;;12.63;;
29916;SDS011;16786;49.466;11.068;2023-01-08T16:02:43;19.45;;;9.95;;
29916;SDS011;16786;49.466;11.068;2023-01-08T16:05:16;24.45;;;10.18;;
29916;SDS011;16786;49.466;11.068;2023-01-08T16:07:44;19.40;;;9.65;;
29916;SDS011;16786;49.466;11.068;2023-01-08T16:10:12;20.58;;;9.95;;